createdAt,value
2022-08-28T00:00:05.939Z,0.00
2022-08-28T00:01:05.982Z,0.00
2022-08-28T00:02:06.050Z,0.00
2022-08-28T00:03:06.189Z,0.00
2022-08-28T00:04:06.122Z,0.00
2022-08-28T00:05:06.282Z,0.00
2022-08-28T00:06:06.192Z,0.00
2022-08-28T00:07:06.243Z,0.00
2022-08-28T00:08:06.292Z,0.00
2022-08-28T00:09:06.340Z,0.00
2022-08-28T00:10:06.413Z,0.00
2022-08-28T00:11:06.462Z,0.00
2022-08-28T00:12:06.513Z,0.00
2022-08-28T00:13:06.559Z,0.00
2022-08-28T00:14:06.625Z,0.00
2022-08-28T00:15:06.665Z,0.00
2022-08-28T00:16:06.779Z,0.00
2022-08-28T00:17:06.755Z,0.00
2022-08-28T00:18:06.809Z,0.00
2022-08-28T00:19:06.857Z,0.00
2022-08-28T00:20:06.912Z,0.00
2022-08-28T00:21:06.978Z,0.00
2022-08-28T00:22:06.946Z,0.00
2022-08-28T00:23:06.998Z,0.00
2022-08-28T00:24:07.047Z,0.00
2022-08-28T00:25:07.087Z,0.00
2022-08-28T00:26:07.138Z,0.00
2022-08-28T00:27:07.190Z,0.00
2022-08-28T00:28:08.786Z,0.00
2022-08-28T00:29:07.258Z,0.00
2022-08-28T00:30:07.309Z,0.00
2022-08-28T00:31:07.376Z,0.00
2022-08-28T00:32:07.419Z,0.00
2022-08-28T00:33:07.449Z,0.00
2022-08-28T00:34:07.489Z,0.00
2022-08-28T00:35:07.539Z,0.00
2022-08-28T00:36:07.580Z,0.00
2022-08-28T00:37:07.642Z,0.00
2022-08-28T00:38:07.679Z,0.00
2022-08-28T00:39:07.741Z,0.00
2022-08-28T00:40:07.820Z,0.00
2022-08-28T00:41:07.811Z,0.00
2022-08-28T00:42:07.852Z,0.00
2022-08-28T00:43:07.890Z,0.00
2022-08-28T00:44:07.952Z,0.00
2022-08-28T00:45:07.992Z,0.00
2022-08-28T00:46:08.102Z,0.00
2022-08-28T00:47:08.052Z,0.00
2022-08-28T00:48:08.221Z,0.00
2022-08-28T00:49:08.103Z,0.00
2022-08-28T00:50:08.142Z,0.00
2022-08-28T00:51:08.184Z,0.00
2022-08-28T00:52:08.249Z,0.00
2022-08-28T00:53:08.255Z,0.00
2022-08-28T00:54:08.475Z,0.00
2022-08-28T00:55:08.285Z,0.00
2022-08-28T00:56:12.999Z,0.00
2022-08-28T00:57:08.366Z,0.00
2022-08-28T00:58:08.461Z,0.00
2022-08-28T00:59:08.429Z,0.00
2022-08-28T01:00:08.491Z,0.00
2022-08-28T01:01:08.537Z,0.00
2022-08-28T01:02:08.595Z,0.00
2022-08-28T01:03:08.685Z,0.00
2022-08-28T01:04:08.647Z,0.00
2022-08-28T01:05:08.699Z,0.00
2022-08-28T01:06:08.668Z,0.00
2022-08-28T01:07:08.721Z,0.00
2022-08-28T01:08:08.873Z,0.00
2022-08-28T01:09:08.779Z,0.00
2022-08-28T01:10:08.849Z,0.00
2022-08-28T01:11:08.808Z,0.00
2022-08-28T01:12:08.867Z,0.00
2022-08-28T01:13:08.930Z,0.00
2022-08-28T01:14:08.893Z,0.00
2022-08-28T01:15:08.932Z,0.00
2022-08-28T01:16:09.109Z,0.00
2022-08-28T01:17:09.023Z,0.00
2022-08-28T01:18:09.212Z,0.00
2022-08-28T01:19:09.140Z,0.00
2022-08-28T01:20:09.212Z,0.00
2022-08-28T01:21:09.182Z,0.00
2022-08-28T01:22:09.243Z,0.00
2022-08-28T01:23:09.285Z,0.00
2022-08-28T01:24:09.344Z,0.00
2022-08-28T01:25:09.403Z,0.00
2022-08-28T01:26:11.793Z,0.00
2022-08-28T01:27:09.462Z,0.00
2022-08-28T01:28:09.505Z,0.00
2022-08-28T01:29:09.565Z,0.00
2022-08-28T01:30:09.615Z,0.00
2022-08-28T01:31:09.695Z,0.00
2022-08-28T01:32:09.694Z,0.00
2022-08-28T01:33:09.737Z,0.00
2022-08-28T01:34:09.808Z,0.00
2022-08-28T01:35:09.848Z,0.00
2022-08-28T01:36:09.888Z,0.00
2022-08-28T01:37:09.927Z,0.00
2022-08-28T01:38:09.967Z,0.00
2022-08-28T01:39:10.015Z,0.00
2022-08-28T01:40:10.111Z,0.00
2022-08-28T01:41:10.129Z,0.00
2022-08-28T01:42:10.168Z,0.00
2022-08-28T01:43:10.209Z,0.00
2022-08-28T01:44:10.259Z,0.00
2022-08-28T01:45:10.299Z,0.00
2022-08-28T01:46:10.389Z,0.00
2022-08-28T01:47:10.350Z,0.00
2022-08-28T01:48:10.419Z,0.00
2022-08-28T01:49:10.417Z,0.00
2022-08-28T01:50:10.441Z,0.00
2022-08-28T01:51:10.450Z,0.00
2022-08-28T01:52:10.503Z,0.00
2022-08-28T01:53:12.468Z,0.00
2022-08-28T01:54:10.650Z,0.00
2022-08-28T01:55:10.605Z,0.00
2022-08-28T01:56:10.644Z,0.00
2022-08-28T01:57:10.706Z,0.00
2022-08-28T01:58:10.846Z,0.00
2022-08-28T01:59:10.758Z,0.00
2022-08-28T02:00:10.844Z,0.00
2022-08-28T02:01:10.864Z,0.00
2022-08-28T02:02:10.937Z,0.00
2022-08-28T02:03:10.895Z,0.00
2022-08-28T02:04:11.018Z,0.00
2022-08-28T02:05:11.006Z,0.00
2022-08-28T02:06:11.060Z,0.00
2022-08-28T02:07:11.120Z,0.00
2022-08-28T02:08:11.174Z,0.00
2022-08-28T02:09:14.536Z,0.00
2022-08-28T02:10:11.256Z,0.00
2022-08-28T02:11:11.326Z,0.00
2022-08-28T02:12:11.388Z,0.00
2022-08-28T02:13:11.436Z,0.00
2022-08-28T02:14:11.492Z,0.00
2022-08-28T02:15:11.537Z,0.00
2022-08-28T02:16:11.693Z,0.00
2022-08-28T02:17:11.607Z,0.00
2022-08-28T02:18:11.952Z,0.00
2022-08-28T02:19:11.718Z,0.00
2022-08-28T02:20:11.771Z,0.00
2022-08-28T02:21:11.821Z,0.00
2022-08-28T02:22:11.889Z,0.00
2022-08-28T02:23:11.947Z,0.00
2022-08-28T02:24:11.990Z,0.00
2022-08-28T02:25:12.040Z,0.00
2022-08-28T02:26:12.080Z,0.00
2022-08-28T02:27:12.130Z,0.00
2022-08-28T02:28:12.329Z,0.00
2022-08-28T02:29:12.212Z,0.00
2022-08-28T02:30:12.260Z,0.00
2022-08-28T02:31:12.350Z,0.00
2022-08-28T02:32:12.322Z,0.00
2022-08-28T02:33:12.363Z,0.00
2022-08-28T02:34:12.412Z,0.00
2022-08-28T02:35:12.462Z,0.00
2022-08-28T02:36:12.522Z,0.00
2022-08-28T02:37:12.574Z,0.00
2022-08-28T02:38:12.913Z,0.00
2022-08-28T02:39:12.614Z,0.00
2022-08-28T02:40:12.705Z,0.00
2022-08-28T02:41:12.681Z,0.00
2022-08-28T02:42:12.725Z,0.00
2022-08-28T02:43:12.727Z,0.00
2022-08-28T02:44:12.786Z,0.00
2022-08-28T02:45:12.838Z,0.00
2022-08-28T02:46:12.931Z,0.00
2022-08-28T02:47:12.907Z,0.00
2022-08-28T02:48:17.172Z,0.00
2022-08-28T02:49:12.955Z,0.00
2022-08-28T02:50:13.026Z,0.00
2022-08-28T02:51:13.072Z,0.00
2022-08-28T02:52:13.126Z,0.00
2022-08-28T02:53:13.177Z,0.00
2022-08-28T02:54:13.218Z,0.00
2022-08-28T02:55:13.218Z,0.00
2022-08-28T02:56:13.278Z,0.00
2022-08-28T02:57:13.322Z,0.00
2022-08-28T02:58:13.529Z,0.00
2022-08-28T02:59:13.434Z,0.00
2022-08-28T03:00:13.475Z,0.00
2022-08-28T03:01:13.676Z,0.00
2022-08-28T03:02:13.611Z,0.00
2022-08-28T03:03:13.591Z,0.00
2022-08-28T03:04:13.631Z,0.00
2022-08-28T03:05:13.671Z,0.00
2022-08-28T03:06:13.749Z,0.00
2022-08-28T03:07:13.711Z,0.00
2022-08-28T03:08:13.929Z,0.00
2022-08-28T03:09:13.811Z,0.00
2022-08-28T03:10:13.862Z,0.00
2022-08-28T03:11:13.912Z,0.00
2022-08-28T03:12:13.964Z,0.00
2022-08-28T03:13:14.026Z,0.00
2022-08-28T03:14:14.074Z,0.00
2022-08-28T03:15:14.113Z,0.00
2022-08-28T03:16:14.199Z,0.00
2022-08-28T03:17:14.183Z,0.00
2022-08-28T03:18:14.420Z,0.00
2022-08-28T03:19:14.214Z,0.00
2022-08-28T03:20:14.275Z,0.00
2022-08-28T03:21:14.329Z,0.00
2022-08-28T03:22:14.377Z,0.00
2022-08-28T03:23:14.436Z,0.00
2022-08-28T03:24:15.161Z,0.00
2022-08-28T03:25:14.537Z,0.00
2022-08-28T03:26:14.618Z,0.00
2022-08-28T03:27:14.657Z,0.00
2022-08-28T03:28:14.705Z,0.00
2022-08-28T03:29:14.765Z,0.00
2022-08-28T03:30:14.807Z,0.00
2022-08-28T03:31:14.921Z,0.00
2022-08-28T03:32:14.918Z,0.00
2022-08-28T03:33:14.969Z,0.00
2022-08-28T03:34:15.038Z,0.00
2022-08-28T03:35:15.097Z,0.00
2022-08-28T03:36:15.148Z,0.00
2022-08-28T03:37:15.200Z,0.00
2022-08-28T03:38:15.250Z,0.00
2022-08-28T03:39:15.290Z,0.00
2022-08-28T03:40:15.396Z,0.00
2022-08-28T03:41:15.411Z,0.00
2022-08-28T03:42:15.385Z,0.00
2022-08-28T03:43:15.379Z,0.00
2022-08-28T03:44:15.401Z,0.00
2022-08-28T03:45:15.423Z,0.00
2022-08-28T03:46:15.562Z,0.00
2022-08-28T03:47:15.462Z,0.00
2022-08-28T03:48:15.521Z,0.00
2022-08-28T03:49:15.512Z,0.00
2022-08-28T03:50:15.543Z,0.00
2022-08-28T03:51:15.585Z,0.00
2022-08-28T03:52:15.623Z,0.00
2022-08-28T03:53:15.664Z,0.00
2022-08-28T03:54:15.716Z,4.00
2022-08-28T03:55:15.755Z,4.00
2022-08-28T03:56:15.795Z,0.00
2022-08-28T03:57:15.836Z,4.00
2022-08-28T03:58:19.004Z,4.00
2022-08-28T03:59:15.915Z,4.00
2022-08-28T04:00:15.967Z,4.00
2022-08-28T04:01:16.059Z,8.00
2022-08-28T04:02:16.046Z,8.00
2022-08-28T04:03:16.105Z,8.00
2022-08-28T04:04:16.113Z,8.00
2022-08-28T04:05:16.079Z,12.00
2022-08-28T04:06:16.058Z,16.00
2022-08-28T04:07:16.048Z,20.00
2022-08-28T04:08:16.050Z,20.00
2022-08-28T04:09:16.127Z,24.00
2022-08-28T04:10:16.129Z,28.00
2022-08-28T04:11:16.119Z,28.00
2022-08-28T04:12:16.108Z,40.00
2022-08-28T04:13:16.172Z,36.00
2022-08-28T04:14:16.249Z,44.00
2022-08-28T04:15:16.241Z,48.00
2022-08-28T04:16:16.274Z,56.00
2022-08-28T04:17:16.283Z,64.00
2022-08-28T04:18:16.263Z,68.00
2022-08-28T04:19:16.331Z,76.00
2022-08-28T04:20:16.372Z,80.00
2022-08-28T04:21:16.384Z,88.00
2022-08-28T04:22:16.381Z,92.00
2022-08-28T04:23:16.392Z,104.00
2022-08-28T04:24:16.412Z,116.00
2022-08-28T04:25:16.462Z,124.00
2022-08-28T04:26:16.529Z,136.00
2022-08-28T04:27:16.504Z,152.00
2022-08-28T04:28:16.558Z,172.00
2022-08-28T04:29:16.622Z,200.00
2022-08-28T04:30:16.683Z,244.00
2022-08-28T04:31:16.802Z,280.00
2022-08-28T04:32:16.814Z,296.00
2022-08-28T04:33:16.796Z,324.00
2022-08-28T04:34:16.786Z,380.00
2022-08-28T04:35:16.866Z,404.00
2022-08-28T04:36:16.896Z,444.00
2022-08-28T04:37:16.926Z,460.00
2022-08-28T04:38:16.968Z,516.00
2022-08-28T04:39:16.990Z,592.00
2022-08-28T04:40:16.996Z,588.00
2022-08-28T04:41:16.978Z,704.00
2022-08-28T04:42:16.998Z,744.00
2022-08-28T04:43:17.018Z,724.00
2022-08-28T04:44:17.084Z,752.00
2022-08-28T04:45:17.098Z,820.00
2022-08-28T04:46:17.143Z,780.00
2022-08-28T04:47:17.149Z,864.00
2022-08-28T04:48:17.309Z,1024.00
2022-08-28T04:49:17.170Z,984.00
2022-08-28T04:50:17.183Z,1108.00
2022-08-28T04:51:17.180Z,1220.00
2022-08-28T04:52:17.201Z,1192.00
2022-08-28T04:53:17.241Z,1348.00
2022-08-28T04:54:17.292Z,1452.00
2022-08-28T04:55:18.252Z,1520.00
2022-08-28T04:56:17.352Z,1468.00
2022-08-28T04:57:17.363Z,1600.00
2022-08-28T04:58:17.383Z,1768.00
2022-08-28T04:59:17.444Z,1688.00
2022-08-28T05:00:17.504Z,1668.00
2022-08-28T05:01:17.659Z,1680.00
2022-08-28T05:02:17.599Z,1760.00
2022-08-28T05:03:17.576Z,1748.00
2022-08-28T05:04:17.616Z,1624.00
2022-08-28T05:05:17.675Z,1732.00
2022-08-28T05:06:17.654Z,1752.00
2022-08-28T05:07:17.722Z,1656.00
2022-08-28T05:08:17.755Z,1768.00
2022-08-28T05:09:17.765Z,1984.00
2022-08-28T05:10:17.796Z,1932.00
2022-08-28T05:11:33.138Z,2028.00
2022-08-28T05:12:17.886Z,2052.00
2022-08-28T05:13:17.946Z,2000.00
2022-08-28T05:14:17.967Z,2156.00
2022-08-28T05:15:18.018Z,2444.00
2022-08-28T05:16:18.094Z,2732.00
2022-08-28T05:17:18.069Z,2764.00
2022-08-28T05:18:18.119Z,2808.00
2022-08-28T05:19:18.158Z,2868.00
2022-08-28T05:20:18.168Z,2504.00
2022-08-28T05:21:18.189Z,2516.00
2022-08-28T05:22:18.227Z,2296.00
2022-08-28T05:23:18.243Z,2180.00
2022-08-28T05:24:18.270Z,1984.00
2022-08-28T05:25:18.329Z,1860.00
2022-08-28T05:26:18.393Z,1912.00
2022-08-28T05:27:18.410Z,1880.00
2022-08-28T05:28:18.452Z,1968.00
2022-08-28T05:29:18.493Z,1932.00
2022-08-28T05:30:18.501Z,2064.00
2022-08-28T05:31:18.585Z,1936.00
2022-08-28T05:32:18.562Z,2028.00
2022-08-28T05:33:18.584Z,2232.00
2022-08-28T05:34:18.623Z,2432.00
2022-08-28T05:35:18.660Z,2912.00
2022-08-28T05:36:18.634Z,3148.00
2022-08-28T05:37:19.787Z,3764.00
2022-08-28T05:38:18.644Z,4412.00
2022-08-28T05:39:18.645Z,4608.00
2022-08-28T05:40:18.722Z,5112.00
2022-08-28T05:41:18.705Z,4956.00
2022-08-28T05:42:18.715Z,4804.00
2022-08-28T05:43:18.711Z,4772.00
2022-08-28T05:44:18.713Z,4616.00
2022-08-28T05:45:18.736Z,12704.00
2022-08-28T05:46:18.773Z,3904.00
2022-08-28T05:47:18.738Z,4016.00
2022-08-28T05:48:18.757Z,4216.00
2022-08-28T05:49:18.759Z,4376.00
2022-08-28T05:50:18.759Z,4272.00
2022-08-28T05:51:18.778Z,4208.00
2022-08-28T05:52:18.838Z,4164.00
2022-08-28T05:53:18.840Z,3916.00
2022-08-28T05:54:18.859Z,3964.00
2022-08-28T05:55:18.899Z,3840.00
2022-08-28T05:56:18.968Z,4012.00
2022-08-28T05:57:19.059Z,4320.00
2022-08-28T05:58:19.091Z,4420.00
2022-08-28T05:59:19.082Z,4616.00
2022-08-28T06:00:19.118Z,4676.00
2022-08-28T06:01:19.131Z,4556.00
2022-08-28T06:02:19.243Z,4392.00
2022-08-28T06:03:19.192Z,4540.00
2022-08-28T06:04:19.305Z,5084.00
2022-08-28T06:05:19.231Z,7072.00
2022-08-28T06:06:19.261Z,6828.00
2022-08-28T06:07:19.333Z,6256.00
2022-08-28T06:08:19.333Z,6244.00
2022-08-28T06:09:19.386Z,6648.00
2022-08-28T06:10:19.384Z,7036.00
2022-08-28T06:11:19.385Z,7516.00
2022-08-28T06:12:19.374Z,8572.00
2022-08-28T06:13:19.402Z,9008.00
2022-08-28T06:14:19.405Z,9540.00
2022-08-28T06:15:19.456Z,9268.00
2022-08-28T06:16:19.547Z,11044.00
2022-08-28T06:17:20.062Z,11292.00
2022-08-28T06:18:19.586Z,10600.00
2022-08-28T06:19:19.626Z,10424.00
2022-08-28T06:20:19.679Z,10104.00
2022-08-28T06:21:19.707Z,10108.00
2022-08-28T06:22:19.768Z,10584.00
2022-08-28T06:23:24.037Z,10892.00
2022-08-28T06:24:19.767Z,12884.00
2022-08-28T06:25:19.770Z,13908.00
2022-08-28T06:26:19.778Z,12716.00
2022-08-28T06:27:19.869Z,11816.00
2022-08-28T06:28:19.850Z,21664.00
2022-08-28T06:29:21.059Z,12964.00
2022-08-28T06:30:19.911Z,12956.00
2022-08-28T06:31:23.931Z,14120.00
2022-08-28T06:32:19.949Z,21568.00
2022-08-28T06:33:19.921Z,24640.00
2022-08-28T06:34:19.913Z,62208.00
2022-08-28T06:35:19.912Z,16672.00
2022-08-28T06:36:19.942Z,17504.00
2022-08-28T06:37:19.973Z,18624.00
2022-08-28T06:38:20.003Z,18176.00
2022-08-28T06:39:20.025Z,23328.00
2022-08-28T06:40:20.134Z,63744.00
2022-08-28T06:41:20.092Z,36288.00
2022-08-28T06:42:20.115Z,21824.00
2022-08-28T06:43:20.116Z,17568.00
2022-08-28T06:44:20.174Z,63616.00
2022-08-28T06:45:20.199Z,62560.00
2022-08-28T06:46:20.258Z,74080.00
2022-08-28T06:47:20.267Z,25536.00
2022-08-28T06:48:20.337Z,73888.00
2022-08-28T06:49:20.379Z,63328.00
2022-08-28T06:50:20.428Z,51776.00
2022-08-28T06:51:20.459Z,73728.00
2022-08-28T06:52:20.459Z,69984.00
2022-08-28T06:53:20.488Z,78752.00
2022-08-28T06:54:23.136Z,38912.00
2022-08-28T06:55:20.623Z,41600.00
2022-08-28T06:56:26.519Z,28960.00
2022-08-28T06:57:20.641Z,28672.00
2022-08-28T06:58:20.692Z,45216.00
2022-08-28T06:59:20.692Z,21664.00
2022-08-28T07:00:20.753Z,20768.00
2022-08-28T07:01:20.800Z,20416.00
2022-08-28T07:02:20.971Z,35936.00
2022-08-28T07:03:20.863Z,19232.00
2022-08-28T07:04:20.914Z,17888.00
2022-08-28T07:05:20.965Z,24576.00
2022-08-28T07:06:20.995Z,20800.00
2022-08-28T07:07:31.631Z,20160.00
2022-08-28T07:08:21.066Z,18816.00
2022-08-28T07:09:21.058Z,20256.00
2022-08-28T07:10:21.127Z,20288.00
2022-08-28T07:11:21.176Z,17696.00
2022-08-28T07:12:21.237Z,17472.00
2022-08-28T07:13:21.288Z,20608.00
2022-08-28T07:14:21.278Z,21344.00
2022-08-28T07:15:21.319Z,20576.00
2022-08-28T07:16:21.348Z,19200.00
2022-08-28T07:17:21.389Z,18752.00
2022-08-28T07:18:21.410Z,19616.00
2022-08-28T07:19:21.430Z,24896.00
2022-08-28T07:20:21.423Z,36160.00
2022-08-28T07:21:21.431Z,29984.00
2022-08-28T07:22:21.432Z,34560.00
2022-08-28T07:23:21.454Z,37344.00
2022-08-28T07:24:21.512Z,35328.00
2022-08-28T07:25:21.564Z,33824.00
2022-08-28T07:26:21.563Z,41184.00
2022-08-28T07:27:21.632Z,36768.00
2022-08-28T07:28:21.604Z,41376.00
2022-08-28T07:29:21.630Z,96352.00
2022-08-28T07:30:21.657Z,87136.00
2022-08-28T07:31:21.772Z,84928.00
2022-08-28T07:32:21.786Z,61280.00
2022-08-28T07:33:21.766Z,27680.00
2022-08-28T07:34:21.767Z,27008.00
2022-08-28T07:35:21.755Z,30624.00
2022-08-28T07:36:28.744Z,56352.00
2022-08-28T07:37:21.827Z,31360.00
2022-08-28T07:38:21.862Z,50464.00
2022-08-28T07:39:21.828Z,70368.00
2022-08-28T07:40:21.915Z,89248.00
2022-08-28T07:41:21.827Z,38752.00
2022-08-28T07:42:21.830Z,61280.00
2022-08-28T07:43:21.880Z,33344.00
2022-08-28T07:44:21.911Z,27040.00
2022-08-28T07:45:21.921Z,41472.00
2022-08-28T07:46:22.046Z,24544.00
2022-08-28T07:47:21.983Z,26784.00
2022-08-28T07:48:22.013Z,24480.00
2022-08-28T07:49:22.034Z,26272.00
2022-08-28T07:50:22.064Z,100896.00
2022-08-28T07:51:22.045Z,44352.00
2022-08-28T07:52:22.105Z,102368.00
2022-08-28T07:53:22.115Z,32576.00
2022-08-28T07:54:22.127Z,30688.00
2022-08-28T07:55:22.136Z,45408.00
2022-08-28T07:56:22.196Z,34144.00
2022-08-28T07:57:22.921Z,48096.00
2022-08-28T07:58:22.297Z,33952.00
2022-08-28T07:59:22.347Z,36480.00
2022-08-28T08:00:22.368Z,32384.00
2022-08-28T08:01:22.549Z,87968.00
2022-08-28T08:02:22.421Z,28224.00
2022-08-28T08:03:22.492Z,33056.00
2022-08-28T08:04:22.451Z,44736.00
2022-08-28T08:05:22.501Z,35424.00
2022-08-28T08:06:22.521Z,66336.00
2022-08-28T08:07:22.551Z,68224.00
2022-08-28T08:08:22.562Z,58112.00
2022-08-28T08:09:22.622Z,93376.00
2022-08-28T08:10:22.704Z,90432.00
2022-08-28T08:11:22.702Z,88160.00
2022-08-28T08:12:22.714Z,86848.00
2022-08-28T08:13:22.765Z,90944.00
2022-08-28T08:14:22.805Z,76928.00
2022-08-28T08:15:22.866Z,77600.00
2022-08-28T08:16:22.958Z,87648.00
2022-08-28T08:17:22.917Z,87264.00
2022-08-28T08:18:23.343Z,85024.00
2022-08-28T08:19:22.977Z,85056.00
2022-08-28T08:20:22.988Z,80992.00
2022-08-28T08:21:26.076Z,85952.00
2022-08-28T08:22:23.066Z,85216.00
2022-08-28T08:23:23.141Z,84544.00
2022-08-28T08:24:23.140Z,88224.00
2022-08-28T08:25:23.150Z,91136.00
2022-08-28T08:26:23.171Z,89536.00
2022-08-28T08:27:23.211Z,93088.00
2022-08-28T08:28:23.181Z,90528.00
2022-08-28T08:29:23.263Z,27968.00
2022-08-28T08:30:23.232Z,18528.00
2022-08-28T08:31:23.306Z,15432.00
2022-08-28T08:32:23.325Z,13464.00
2022-08-28T08:33:23.354Z,13412.00
2022-08-28T08:34:23.423Z,13736.00
2022-08-28T08:35:23.453Z,14872.00
2022-08-28T08:36:23.505Z,16240.00
2022-08-28T08:37:23.551Z,71680.00
2022-08-28T08:38:23.617Z,16800.00
2022-08-28T08:39:23.618Z,15824.00
2022-08-28T08:40:23.693Z,17376.00
2022-08-28T08:41:23.608Z,18304.00
2022-08-28T08:42:23.659Z,22816.00
2022-08-28T08:43:23.730Z,90944.00
2022-08-28T08:44:23.729Z,89440.00
2022-08-28T08:45:23.797Z,91520.00
2022-08-28T08:46:23.825Z,40448.00
2022-08-28T08:47:23.801Z,29376.00
2022-08-28T08:48:23.792Z,23584.00
2022-08-28T08:49:23.813Z,21376.00
2022-08-28T08:50:23.882Z,23520.00
2022-08-28T08:51:23.884Z,23584.00
2022-08-28T08:52:23.943Z,90240.00
2022-08-28T08:53:23.975Z,26720.00
2022-08-28T08:54:24.006Z,21888.00
2022-08-28T08:55:24.056Z,24864.00
2022-08-28T08:56:24.045Z,83424.00
2022-08-28T08:57:24.056Z,86656.00
2022-08-28T08:58:24.058Z,80864.00
2022-08-28T08:59:24.104Z,81696.00
2022-08-28T09:00:24.117Z,80448.00
2022-08-28T09:01:24.215Z,21792.00
2022-08-28T09:02:31.172Z,81728.00
2022-08-28T09:03:24.269Z,81760.00
2022-08-28T09:04:24.250Z,76896.00
2022-08-28T09:05:24.260Z,80640.00
2022-08-28T09:06:24.311Z,33216.00
2022-08-28T09:07:24.322Z,23712.00
2022-08-28T09:08:24.340Z,81056.00
2022-08-28T09:09:24.372Z,77280.00
2022-08-28T09:10:24.381Z,80576.00
2022-08-28T09:11:24.372Z,28576.00
2022-08-28T09:12:24.433Z,25184.00
2022-08-28T09:13:24.494Z,60576.00
2022-08-28T09:14:27.002Z,42112.00
2022-08-28T09:15:24.604Z,23936.00
2022-08-28T09:16:24.602Z,20032.00
2022-08-28T09:17:24.555Z,21120.00
2022-08-28T09:18:24.596Z,21664.00
2022-08-28T09:19:24.617Z,19552.00
2022-08-28T09:20:32.342Z,19008.00
2022-08-28T09:21:28.537Z,18720.00
2022-08-28T09:22:24.669Z,18368.00
2022-08-28T09:23:24.710Z,18656.00
2022-08-28T09:24:24.768Z,19168.00
2022-08-28T09:25:24.759Z,73152.00
2022-08-28T09:26:24.789Z,69312.00
2022-08-28T09:27:24.791Z,66944.00
2022-08-28T09:28:24.781Z,60896.00
2022-08-28T09:29:24.810Z,59712.00
2022-08-28T09:30:24.833Z,61408.00
2022-08-28T09:31:24.948Z,66560.00
2022-08-28T09:32:24.932Z,67616.00
2022-08-28T09:33:24.973Z,67520.00
2022-08-28T09:34:24.983Z,51072.00
2022-08-28T09:35:24.994Z,35552.00
2022-08-28T09:36:24.995Z,28000.00
2022-08-28T09:37:25.065Z,19456.00
2022-08-28T09:38:27.617Z,17856.00
2022-08-28T09:39:25.116Z,17280.00
2022-08-28T09:40:25.236Z,15896.00
2022-08-28T09:41:25.199Z,15848.00
2022-08-28T09:42:25.255Z,19616.00
2022-08-28T09:43:25.238Z,61248.00
2022-08-28T09:44:25.248Z,48576.00
2022-08-28T09:45:25.319Z,59040.00
2022-08-28T09:46:25.355Z,59840.00
2022-08-28T09:47:25.330Z,61632.00
2022-08-28T09:48:25.370Z,36416.00
2022-08-28T09:49:25.382Z,52160.00
2022-08-28T09:50:25.411Z,16468.00
2022-08-28T09:51:25.452Z,17632.00
2022-08-28T09:52:25.525Z,19168.00
2022-08-28T09:53:25.533Z,16344.00
2022-08-28T09:54:25.582Z,15888.00
2022-08-28T09:55:25.594Z,15320.00
2022-08-28T09:56:25.664Z,51424.00
2022-08-28T09:57:25.655Z,50976.00
2022-08-28T09:58:25.683Z,52288.00
2022-08-28T09:59:25.717Z,51872.00
2022-08-28T10:00:25.765Z,50144.00
2022-08-28T10:01:25.861Z,48352.00
2022-08-28T10:02:25.887Z,48448.00
2022-08-28T10:03:25.968Z,49472.00
2022-08-28T10:04:26.130Z,46752.00
2022-08-28T10:05:26.705Z,44416.00
2022-08-28T10:06:26.019Z,45152.00
2022-08-28T10:07:26.079Z,47488.00
2022-08-28T10:08:26.150Z,42688.00
2022-08-28T10:09:26.152Z,45856.00
2022-08-28T10:10:26.181Z,47488.00
2022-08-28T10:11:26.181Z,50592.00
2022-08-28T10:12:26.190Z,44544.00
2022-08-28T10:13:26.175Z,22208.00
2022-08-28T10:14:26.213Z,16080.00
2022-08-28T10:15:26.303Z,15464.00
2022-08-28T10:16:26.394Z,18592.00
2022-08-28T10:17:26.324Z,16400.00
2022-08-28T10:18:26.345Z,41664.00
2022-08-28T10:19:26.376Z,40128.00
2022-08-28T10:20:26.450Z,38272.00
2022-08-28T10:21:26.426Z,36448.00
2022-08-28T10:22:26.488Z,34048.00
2022-08-28T10:23:26.497Z,29760.00
2022-08-28T10:24:27.746Z,29280.00
2022-08-28T10:25:26.578Z,34720.00
2022-08-28T10:26:26.619Z,32832.00
2022-08-28T10:27:26.649Z,32096.00
2022-08-28T10:28:26.630Z,30784.00
2022-08-28T10:29:26.640Z,15056.00
2022-08-28T10:30:26.703Z,16340.00
2022-08-28T10:31:26.756Z,28608.00
2022-08-28T10:32:26.694Z,28608.00
2022-08-28T10:33:27.542Z,28448.00
2022-08-28T10:34:26.780Z,31712.00
2022-08-28T10:35:26.834Z,20096.00
2022-08-28T10:36:33.762Z,29952.00
2022-08-28T10:37:26.924Z,29696.00
2022-08-28T10:38:26.934Z,27936.00
2022-08-28T10:39:26.977Z,27776.00
2022-08-28T10:40:27.027Z,26176.00
2022-08-28T10:41:27.087Z,26464.00
2022-08-28T10:42:30.217Z,26080.00
2022-08-28T10:43:27.194Z,14160.00
2022-08-28T10:44:27.169Z,23648.00
2022-08-28T10:45:27.231Z,26912.00
2022-08-28T10:46:27.576Z,12856.00
2022-08-28T10:47:27.320Z,27680.00
2022-08-28T10:48:27.309Z,28128.00
2022-08-28T10:49:27.311Z,22624.00
2022-08-28T10:50:27.381Z,20576.00
2022-08-28T10:51:34.852Z,18592.00
2022-08-28T10:52:27.413Z,13408.00
2022-08-28T10:53:27.401Z,21120.00
2022-08-28T10:54:27.425Z,24096.00
2022-08-28T10:55:27.413Z,22880.00
2022-08-28T10:56:27.423Z,21920.00
2022-08-28T10:57:27.423Z,21408.00
2022-08-28T10:58:27.484Z,21600.00
2022-08-28T10:59:27.504Z,21248.00
2022-08-28T11:00:27.525Z,21760.00
2022-08-28T11:01:27.625Z,22080.00
2022-08-28T11:02:27.606Z,21088.00
2022-08-28T11:03:35.526Z,21888.00
2022-08-28T11:04:27.636Z,19808.00
2022-08-28T11:05:27.647Z,18688.00
2022-08-28T11:06:27.708Z,18144.00
2022-08-28T11:07:27.778Z,17312.00
2022-08-28T11:08:27.858Z,16152.00
2022-08-28T11:09:27.870Z,15716.00
2022-08-28T11:10:27.913Z,15548.00
2022-08-28T11:11:27.969Z,15072.00
2022-08-28T11:12:27.981Z,14784.00
2022-08-28T11:13:27.991Z,14052.00
2022-08-28T11:14:27.982Z,13796.00
2022-08-28T11:15:34.184Z,13632.00
2022-08-28T11:16:28.094Z,13460.00
2022-08-28T11:17:28.110Z,13532.00
2022-08-28T11:18:28.132Z,13712.00
2022-08-28T11:19:28.184Z,13640.00
2022-08-28T11:20:28.222Z,13724.00
2022-08-28T11:21:28.268Z,13792.00
2022-08-28T11:22:28.486Z,13668.00
2022-08-28T11:23:28.377Z,13196.00
2022-08-28T11:24:28.478Z,13672.00
2022-08-28T11:25:32.562Z,13716.00
2022-08-28T11:26:28.480Z,13596.00
2022-08-28T11:27:28.451Z,13580.00
2022-08-28T11:28:28.478Z,12952.00
2022-08-28T11:29:28.490Z,12548.00
2022-08-28T11:30:28.547Z,12628.00
2022-08-28T11:31:28.998Z,12916.00
2022-08-28T11:32:28.583Z,13528.00
2022-08-28T11:33:28.572Z,14732.00
2022-08-28T11:34:28.592Z,13556.00
2022-08-28T11:35:28.622Z,10256.00
2022-08-28T11:36:28.702Z,9568.00
2022-08-28T11:37:28.743Z,14192.00
2022-08-28T11:38:28.754Z,11380.00
2022-08-28T11:39:28.803Z,8028.00
2022-08-28T11:40:28.850Z,12804.00
2022-08-28T11:41:28.875Z,12664.00
2022-08-28T11:42:28.906Z,12088.00
2022-08-28T11:43:28.917Z,12200.00
2022-08-28T11:44:28.948Z,11668.00
2022-08-28T11:45:28.979Z,11640.00
2022-08-28T11:46:29.081Z,11636.00
2022-08-28T11:47:29.011Z,12012.00
2022-08-28T11:48:29.029Z,12804.00
2022-08-28T11:49:29.060Z,13400.00
2022-08-28T11:50:29.078Z,14384.00
2022-08-28T11:51:29.147Z,11724.00
2022-08-28T11:52:29.181Z,14264.00
2022-08-28T11:53:29.253Z,14148.00
2022-08-28T11:54:29.252Z,11264.00
2022-08-28T11:55:29.302Z,14948.00
2022-08-28T11:56:31.886Z,14168.00
2022-08-28T11:57:29.364Z,13464.00
2022-08-28T11:58:29.414Z,13052.00
2022-08-28T11:59:35.209Z,12708.00
2022-08-28T12:00:29.493Z,12488.00
2022-08-28T12:01:29.488Z,6544.00
2022-08-28T12:02:29.586Z,9500.00
2022-08-28T12:03:29.584Z,12048.00
2022-08-28T12:04:29.622Z,10236.00
2022-08-28T12:05:29.631Z,9612.00
2022-08-28T12:06:29.649Z,12184.00
2022-08-28T12:07:29.688Z,9992.00
2022-08-28T12:08:29.729Z,11528.00
2022-08-28T12:09:29.759Z,10620.00
2022-08-28T12:10:29.731Z,12156.00
2022-08-28T12:11:29.730Z,12432.00
2022-08-28T12:12:29.751Z,13360.00
2022-08-28T12:13:29.811Z,13140.00
2022-08-28T12:14:29.871Z,13148.00
2022-08-28T12:15:29.892Z,13128.00
2022-08-28T12:16:29.907Z,13508.00
2022-08-28T12:17:31.468Z,9932.00
2022-08-28T12:18:29.963Z,13484.00
2022-08-28T12:19:29.954Z,12836.00